sensor_id;sensor_type;location;lat;lon;timestamp;pressure;altitude;pressure_sealevel;temperature;humidity
71306;BME280;59097;46.858;18.632;2023-02-12T00:00:52;101763.88;;;4.06;85.42
71306;BME280;59097;46.858;18.632;2023-02-12T00:03:18;101761.56;;;4.02;85.64
71306;BME280;59097;46.858;18.632;2023-02-12T00:05:51;101724.69;;;3.68;86.33
71306;BME280;59097;46.858;18.632;2023-02-12T00:08:24;101685.44;;;3.32;87.27
71306;BME280;59097;46.858;18.632;2023-02-12T00:10:56;101752.94;;;3.65;87.70
71306;BME280;59097;46.858;18.632;2023-02-12T00:13:30;101752.31;;;4.09;86.53
71306;BME280;59097;46.858;18.632;2023-02-12T00:16:07;101752.31;;;4.09;86.53
71306;BME280;59097;46.858;18.632;2023-02-12T00:18:44;101750.44;;;3.40;89.20
71306;BME280;59097;46.858;18.632;2023-02-12T00:21:31;101745.50;;;3.35;89.56
71306;BME280;59097;46.858;18.632;2023-02-12T00:24:01;101744.78;;;3.33;89.82
71306;BME280;59097;46.858;18.632;2023-02-12T00:26:31;101737.25;;;3.29;90.26
71306;BME280;59097;46.858;18.632;2023-02-12T00:28:59;101736.19;;;3.31;90.33
71306;BME280;59097;46.858;18.632;2023-02-12T00:31:31;101733.34;;;3.34;90.29
71306;BME280;59097;46.858;18.632;2023-02-12T00:34:03;101734.06;;;3.36;90.12
71306;BME280;59097;46.858;18.632;2023-02-12T00:36:50;101730.41;;;3.39;90.42
71306;BME280;59097;46.858;18.632;2023-02-12T00:39:16;101745.91;;;3.42;90.29
71306;BME280;59097;46.858;18.632;2023-02-12T00:42:05;101737.72;;;3.46;90.22
71306;BME280;59097;46.858;18.632;2023-02-12T00:44:38;101742.53;;;3.52;90.03
71306;BME280;59097;46.858;18.632;2023-02-12T00:47:05;101754.06;;;3.50;90.02
71306;BME280;59097;46.858;18.632;2023-02-12T00:49:38;101646.25;;;2.71;90.70
71306;BME280;59097;46.858;18.632;2023-02-12T00:52:10;101746.28;;;3.48;90.32
71306;BME280;59097;46.858;18.632;2023-02-12T00:54:43;101754.09;;;4.08;88.33
71306;BME280;59097;46.858;18.632;2023-02-12T00:57:12;101754.09;;;4.08;88.33
71306;BME280;59097;46.858;18.632;2023-02-12T00:59:41;101759.56;;;3.34;90.71
71306;BME280;59097;46.858;18.632;2023-02-12T01:02:10;101737.72;;;3.10;91.54
71306;BME280;59097;46.858;18.632;2023-02-12T01:04:40;101768.78;;;3.27;91.66
71306;BME280;59097;46.858;18.632;2023-02-12T01:07:09;101778.03;;;3.33;91.68
71306;BME280;59097;46.858;18.632;2023-02-12T01:09:38;101780.62;;;3.33;91.47
71306;BME280;59097;46.858;18.632;2023-02-12T01:12:06;101768.50;;;3.32;91.41
71306;BME280;59097;46.858;18.632;2023-02-12T01:14:49;101783.06;;;3.36;91.60
71306;BME280;59097;46.858;18.632;2023-02-12T01:17:46;101785.78;;;3.34;91.94
71306;BME280;59097;46.858;18.632;2023-02-12T01:20:28;101785.25;;;3.42;91.90
71306;BME280;59097;46.858;18.632;2023-02-12T01:22:55;101781.28;;;3.36;92.31
71306;BME280;59097;46.858;18.632;2023-02-12T01:25:22;101785.78;;;3.34;92.52
71306;BME280;59097;46.858;18.632;2023-02-12T01:27:52;101780.97;;;3.28;93.02
71306;BME280;59097;46.858;18.632;2023-02-12T01:30:25;101765.59;;;3.95;90.63
71306;BME280;59097;46.858;18.632;2023-02-12T01:32:54;101765.59;;;3.95;90.63
71306;BME280;59097;46.858;18.632;2023-02-12T01:35:23;101772.13;;;3.42;92.97
71306;BME280;59097;46.858;18.632;2023-02-12T01:37:52;101757.00;;;3.45;93.18
71306;BME280;59097;46.858;18.632;2023-02-12T01:40:25;101738.72;;;3.56;92.22
71306;BME280;59097;46.858;18.632;2023-02-12T01:42:53;101727.66;;;3.64;92.17
71306;BME280;59097;46.858;18.632;2023-02-12T01:47:51;101733.47;;;3.56;93.10
71306;BME280;59097;46.858;18.632;2023-02-12T01:50:33;101733.47;;;3.56;92.92
71306;BME280;59097;46.858;18.632;2023-02-12T01:53:18;101745.44;;;3.48;93.62
71306;BME280;59097;46.858;18.632;2023-02-12T01:55:48;101745.69;;;3.45;93.87
71306;BME280;59097;46.858;18.632;2023-02-12T01:58:16;101722.63;;;3.13;94.46
71306;BME280;59097;46.858;18.632;2023-02-12T02:00:42;101746.72;;;3.18;95.01
71306;BME280;59097;46.858;18.632;2023-02-12T02:03:09;101748.47;;;3.31;95.35
71306;BME280;59097;46.858;18.632;2023-02-12T02:08:15;101735.78;;;3.96;92.52
71306;BME280;59097;46.858;18.632;2023-02-12T02:10:43;101737.06;;;3.43;94.70
71306;BME280;59097;46.858;18.632;2023-02-12T02:13:14;101728.28;;;3.44;95.03
71306;BME280;59097;46.858;18.632;2023-02-12T02:16:06;101733.53;;;3.44;95.46
71306;BME280;59097;46.858;18.632;2023-02-12T02:19:01;101743.28;;;3.42;95.65
71306;BME280;59097;46.858;18.632;2023-02-12T02:28:20;101718.44;;;3.58;95.40
71306;BME280;59097;46.858;18.632;2023-02-12T02:33:45;101743.56;;;3.50;95.89
71306;BME280;59097;46.858;18.632;2023-02-12T02:36:36;101746.66;;;4.02;94.43
71306;BME280;59097;46.858;18.632;2023-02-12T02:39:28;101746.66;;;4.02;94.43
71306;BME280;59097;46.858;18.632;2023-02-12T02:44:47;101763.25;;;3.32;97.32
71306;BME280;59097;46.858;18.632;2023-02-12T02:47:29;101787.16;;;3.27;97.82
71306;BME280;59097;46.858;18.632;2023-02-12T02:50:07;101789.28;;;3.09;98.38
71306;BME280;59097;46.858;18.632;2023-02-12T02:52:45;101777.00;;;3.23;98.32
71306;BME280;59097;46.858;18.632;2023-02-12T02:55:35;101738.59;;;2.98;98.65
71306;BME280;59097;46.858;18.632;2023-02-12T02:58:23;101759.00;;;3.05;99.42
71306;BME280;59097;46.858;18.632;2023-02-12T03:01:28;101773.88;;;3.05;99.64
71306;BME280;59097;46.858;18.632;2023-02-12T03:04:08;101763.09;;;2.97;99.84
71306;BME280;59097;46.858;18.632;2023-02-12T03:06:57;101778.63;;;3.00;100.00
71306;BME280;59097;46.858;18.632;2023-02-12T03:09:35;101776.13;;;2.98;100.00
71306;BME280;59097;46.858;18.632;2023-02-12T03:12:16;101769.63;;;3.04;100.00
71306;BME280;59097;46.858;18.632;2023-02-12T03:14:58;101767.00;;;3.64;98.20
71306;BME280;59097;46.858;18.632;2023-02-12T03:17:36;101767.00;;;3.64;98.20
71306;BME280;59097;46.858;18.632;2023-02-12T03:22:47;101788.88;;;3.03;100.00
71306;BME280;59097;46.858;18.632;2023-02-12T03:25:56;101786.59;;;2.98;100.00
71306;BME280;59097;46.858;18.632;2023-02-12T03:28:22;101784.50;;;2.91;100.00
71306;BME280;59097;46.858;18.632;2023-02-12T03:31:23;101789.97;;;2.88;100.00
71306;BME280;59097;46.858;18.632;2023-02-12T03:42:26;101806.72;;;2.98;100.00
71306;BME280;59097;46.858;18.632;2023-02-12T03:45:13;101807.84;;;2.94;100.00
71306;BME280;59097;46.858;18.632;2023-02-12T03:51:24;101816.69;;;3.54;100.00
71306;BME280;59097;46.858;18.632;2023-02-12T03:53:56;101816.69;;;3.54;100.00
71306;BME280;59097;46.858;18.632;2023-02-12T03:56:29;101824.03;;;2.88;100.00
71306;BME280;59097;46.858;18.632;2023-02-12T03:59:02;101829.25;;;2.88;100.00
71306;BME280;59097;46.858;18.632;2023-02-12T04:01:32;101830.81;;;2.90;100.00
71306;BME280;59097;46.858;18.632;2023-02-12T04:04:05;101831.75;;;2.77;100.00
71306;BME280;59097;46.858;18.632;2023-02-12T04:06:34;101824.03;;;2.75;100.00
71306;BME280;59097;46.858;18.632;2023-02-12T04:09:06;101835.88;;;2.81;100.00
71306;BME280;59097;46.858;18.632;2023-02-12T04:17:37;101830.09;;;2.88;100.00
71306;BME280;59097;46.858;18.632;2023-02-12T04:29:20;101848.53;;;3.61;100.00
71306;BME280;59097;46.858;18.632;2023-02-12T04:35:48;101855.78;;;2.96;100.00
71306;BME280;59097;46.858;18.632;2023-02-12T04:38:51;101856.28;;;3.01;100.00
71306;BME280;59097;46.858;18.632;2023-02-12T04:41:34;101853.75;;;2.99;100.00
71306;BME280;59097;46.858;18.632;2023-02-12T04:44:16;101866.12;;;2.85;100.00
71306;BME280;59097;46.858;18.632;2023-02-12T04:46:42;101855.84;;;2.82;100.00
71306;BME280;59097;46.858;18.632;2023-02-12T04:49:13;101874.31;;;2.93;100.00
71306;BME280;59097;46.858;18.632;2023-02-12T04:51:41;101879.56;;;2.93;100.00
71306;BME280;59097;46.858;18.632;2023-02-12T04:54:08;101882.91;;;2.95;100.00
71306;BME280;59097;46.858;18.632;2023-02-12T04:56:34;101885.53;;;2.95;100.00
71306;BME280;59097;46.858;18.632;2023-02-12T04:59:08;101877.19;;;3.64;100.00
71306;BME280;59097;46.858;18.632;2023-02-12T05:01:38;101877.19;;;3.64;100.00
71306;BME280;59097;46.858;18.632;2023-02-12T05:04:09;101896.97;;;3.06;100.00
71306;BME280;59097;46.858;18.632;2023-02-12T05:06:41;101897.78;;;2.94;100.00
71306;BME280;59097;46.858;18.632;2023-02-12T05:09:13;101904.06;;;3.04;100.00
71306;BME280;59097;46.858;18.632;2023-02-12T05:11:42;101910.81;;;3.08;100.00
71306;BME280;59097;46.858;18.632;2023-02-12T05:14:14;101922.41;;;3.04;100.00
71306;BME280;59097;46.858;18.632;2023-02-12T05:16:42;101919.78;;;2.92;100.00
71306;BME280;59097;46.858;18.632;2023-02-12T05:19:11;101909.56;;;3.01;100.00
71306;BME280;59097;46.858;18.632;2023-02-12T05:21:53;101924.19;;;2.91;100.00
71306;BME280;59097;46.858;18.632;2023-02-12T05:24:19;101927.97;;;2.87;100.00
71306;BME280;59097;46.858;18.632;2023-02-12T05:26:48;101926.50;;;2.83;100.00
71306;BME280;59097;46.858;18.632;2023-02-12T05:29:16;101933.72;;;2.80;100.00
71306;BME280;59097;46.858;18.632;2023-02-12T05:31:42;101941.38;;;2.83;100.00
71306;BME280;59097;46.858;18.632;2023-02-12T05:34:10;101957.41;;;2.78;100.00
71306;BME280;59097;46.858;18.632;2023-02-12T05:36:44;101959.37;;;3.39;100.00
71306;BME280;59097;46.858;18.632;2023-02-12T05:39:19;101959.37;;;3.39;100.00
71306;BME280;59097;46.858;18.632;2023-02-12T05:41:47;101974.06;;;2.77;100.00
71306;BME280;59097;46.858;18.632;2023-02-12T05:44:24;101958.53;;;2.74;100.00
71306;BME280;59097;46.858;18.632;2023-02-12T05:47:00;101960.38;;;2.60;100.00
71306;BME280;59097;46.858;18.632;2023-02-12T05:49:41;101964.41;;;2.65;100.00
71306;BME280;59097;46.858;18.632;2023-02-12T05:52:39;101960.38;;;2.60;100.00
71306;BME280;59097;46.858;18.632;2023-02-12T05:55:20;101890.47;;;2.08;100.00
71306;BME280;59097;46.858;18.632;2023-02-12T05:57:52;101983.59;;;2.51;100.00
71306;BME280;59097;46.858;18.632;2023-02-12T06:01:01;101978.97;;;2.42;100.00
71306;BME280;59097;46.858;18.632;2023-02-12T06:04:07;101998.12;;;2.43;100.00
71306;BME280;59097;46.858;18.632;2023-02-12T06:06:35;102011.81;;;2.34;100.00
71306;BME280;59097;46.858;18.632;2023-02-12T06:09:37;102014.62;;;2.31;100.00
71306;BME280;59097;46.858;18.632;2023-02-12T06:12:12;102018.44;;;2.25;100.00
71306;BME280;59097;46.858;18.632;2023-02-12T06:14:40;102024.16;;;2.32;100.00
71306;BME280;59097;46.858;18.632;2023-02-12T06:17:07;102037.72;;;2.24;100.00
71306;BME280;59097;46.858;18.632;2023-02-12T06:19:42;102039.44;;;3.05;100.00
71306;BME280;59097;46.858;18.632;2023-02-12T06:22:11;102039.44;;;3.05;100.00
71306;BME280;59097;46.858;18.632;2023-02-12T06:24:39;102046.50;;;2.37;100.00
71306;BME280;59097;46.858;18.632;2023-02-12T06:27:07;102047.50;;;2.49;100.00
71306;BME280;59097;46.858;18.632;2023-02-12T06:29:36;102058.16;;;2.46;100.00
71306;BME280;59097;46.858;18.632;2023-02-12T06:32:05;102063.38;;;2.46;100.00
71306;BME280;59097;46.858;18.632;2023-02-12T06:34:35;102060.59;;;2.49;100.00
71306;BME280;59097;46.858;18.632;2023-02-12T06:37:04;102062.34;;;2.48;100.00
71306;BME280;59097;46.858;18.632;2023-02-12T06:39:47;102066.84;;;2.61;100.00
71306;BME280;59097;46.858;18.632;2023-02-12T06:42:29;102069.22;;;2.64;100.00
71306;BME280;59097;46.858;18.632;2023-02-12T06:44:55;102071.28;;;2.73;100.00
71306;BME280;59097;46.858;18.632;2023-02-12T06:47:22;102086.63;;;2.91;100.00
71306;BME280;59097;46.858;18.632;2023-02-12T06:49:49;102087.75;;;3.01;100.00
71306;BME280;59097;46.858;18.632;2023-02-12T06:52:16;102065.78;;;3.16;100.00
71306;BME280;59097;46.858;18.632;2023-02-12T06:54:49;102081.91;;;4.00;100.00
71306;BME280;59097;46.858;18.632;2023-02-12T06:57:18;102081.91;;;4.00;100.00
71306;BME280;59097;46.858;18.632;2023-02-12T06:59:48;102088.59;;;3.41;100.00
71306;BME280;59097;46.858;18.632;2023-02-12T07:02:17;102079.16;;;3.51;100.00
71306;BME280;59097;46.858;18.632;2023-02-12T07:04:46;102074.56;;;3.93;100.00
71306;BME280;59097;46.858;18.632;2023-02-12T07:07:14;102080.53;;;3.95;100.00
71306;BME280;59097;46.858;18.632;2023-02-12T07:09:42;102070.91;;;3.83;100.00
71306;BME280;59097;46.858;18.632;2023-02-12T07:12:11;102087.69;;;3.93;100.00
71306;BME280;59097;46.858;18.632;2023-02-12T07:14:44;102097.13;;;3.95;100.00
71306;BME280;59097;46.858;18.632;2023-02-12T07:17:42;102087.03;;;4.02;100.00
71306;BME280;59097;46.858;18.632;2023-02-12T07:20:25;102077.59;;;3.99;100.00
71306;BME280;59097;46.858;18.632;2023-02-12T07:22:51;102085.97;;;4.17;100.00
71306;BME280;59097;46.858;18.632;2023-02-12T07:25:18;102099.84;;;4.31;100.00
71306;BME280;59097;46.858;18.632;2023-02-12T07:27:45;102094.47;;;4.33;100.00
71306;BME280;59097;46.858;18.632;2023-02-12T07:30:18;102107.91;;;5.25;96.25
71306;BME280;59097;46.858;18.632;2023-02-12T07:32:48;102107.91;;;5.25;96.25
71306;BME280;59097;46.858;18.632;2023-02-12T07:35:16;102110.59;;;4.65;98.42
71306;BME280;59097;46.858;18.632;2023-02-12T07:37:47;102111.44;;;4.89;97.64
71306;BME280;59097;46.858;18.632;2023-02-12T07:40:17;102112.16;;;5.84;93.45
71306;BME280;59097;46.858;18.632;2023-02-12T07:42:45;102108.88;;;6.04;91.71
71306;BME280;59097;46.858;18.632;2023-02-12T07:45:17;102117.72;;;5.92;91.22
71306;BME280;59097;46.858;18.632;2023-02-12T07:47:45;102121.56;;;5.99;91.48
71306;BME280;59097;46.858;18.632;2023-02-12T07:50:14;102136.62;;;5.86;91.93
71306;BME280;59097;46.858;18.632;2023-02-12T07:53:11;102128.91;;;5.83;92.45
71306;BME280;59097;46.858;18.632;2023-02-12T07:55:38;102134.41;;;5.80;93.21
71306;BME280;59097;46.858;18.632;2023-02-12T07:58:04;102136.09;;;5.81;92.32
71306;BME280;59097;46.858;18.632;2023-02-12T08:00:31;102125.06;;;5.76;93.11
71306;BME280;59097;46.858;18.632;2023-02-12T08:02:57;102127.47;;;5.79;92.69
71306;BME280;59097;46.858;18.632;2023-02-12T08:05:27;102137.75;;;5.71;93.55
71306;BME280;59097;46.858;18.632;2023-02-12T08:07:54;102146.59;;;5.35;94.25
71306;BME280;59097;46.858;18.632;2023-02-12T08:10:23;102154.53;;;5.23;95.42
71306;BME280;59097;46.858;18.632;2023-02-12T08:12:54;102160.22;;;5.17;95.72
71306;BME280;59097;46.858;18.632;2023-02-12T08:15:22;102167.31;;;5.03;96.75
71306;BME280;59097;46.858;18.632;2023-02-12T08:17:50;102155.06;;;4.91;97.14
71306;BME280;59097;46.858;18.632;2023-02-12T08:20:19;102174.94;;;4.95;97.52
71306;BME280;59097;46.858;18.632;2023-02-12T08:22:47;102176.31;;;4.88;97.94
71306;BME280;59097;46.858;18.632;2023-02-12T08:25:15;102183.97;;;4.91;98.36
71306;BME280;59097;46.858;18.632;2023-02-12T08:27:54;102175.38;;;4.89;98.39
71306;BME280;59097;46.858;18.632;2023-02-12T08:30:20;102189.66;;;4.98;98.26
71306;BME280;59097;46.858;18.632;2023-02-12T08:32:48;102187.38;;;5.17;97.36
71306;BME280;59097;46.858;18.632;2023-02-12T08:35:15;102191.66;;;5.31;96.95
71306;BME280;59097;46.858;18.632;2023-02-12T08:37:42;102198.19;;;5.49;96.37
71306;BME280;59097;46.858;18.632;2023-02-12T08:40:10;102190.34;;;5.60;95.92
71306;BME280;59097;46.858;18.632;2023-02-12T08:42:45;102193.47;;;6.79;91.10
71306;BME280;59097;46.858;18.632;2023-02-12T08:45:14;102193.47;;;6.79;91.10
71306;BME280;59097;46.858;18.632;2023-02-12T08:47:42;102197.50;;;6.27;92.12
71306;BME280;59097;46.858;18.632;2023-02-12T08:50:11;102197.03;;;6.45;92.21
71306;BME280;59097;46.858;18.632;2023-02-12T08:52:40;102197.06;;;6.67;90.92
71306;BME280;59097;46.858;18.632;2023-02-12T08:55:10;102193.94;;;6.73;89.72
71306;BME280;59097;46.858;18.632;2023-02-12T08:57:38;102179.44;;;6.78;89.07
71306;BME280;59097;46.858;18.632;2023-02-12T09:00:08;102211.09;;;7.32;87.84
71306;BME280;59097;46.858;18.632;2023-02-12T09:02:36;102217.28;;;8.47;81.60
71306;BME280;59097;46.858;18.632;2023-02-12T09:05:19;102223.44;;;8.88;79.55
71306;BME280;59097;46.858;18.632;2023-02-12T09:08:08;102224.34;;;9.76;75.51
71306;BME280;59097;46.858;18.632;2023-02-12T09:10:40;102234.72;;;10.44;72.40
71306;BME280;59097;46.858;18.632;2023-02-12T09:13:08;102234.22;;;10.78;71.46
71306;BME280;59097;46.858;18.632;2023-02-12T09:15:42;102235.00;;;10.88;68.03
71306;BME280;59097;46.858;18.632;2023-02-12T09:18:10;102241.31;;;11.14;66.93
71306;BME280;59097;46.858;18.632;2023-02-12T09:20:44;102238.62;;;11.59;65.22
71306;BME280;59097;46.858;18.632;2023-02-12T09:23:14;102238.62;;;11.59;65.22
71306;BME280;59097;46.858;18.632;2023-02-12T09:25:44;102231.69;;;10.76;67.24
71306;BME280;59097;46.858;18.632;2023-02-12T09:28:13;102242.94;;;10.51;68.15
71306;BME280;59097;46.858;18.632;2023-02-12T09:30:42;102237.53;;;10.80;67.88
71306;BME280;59097;46.858;18.632;2023-02-12T09:33:13;102242.78;;;10.62;67.41
71306;BME280;59097;46.858;18.632;2023-02-12T09:35:41;102243.94;;;10.40;68.85
71306;BME280;59097;46.858;18.632;2023-02-12T09:38:10;102219.09;;;10.41;68.63
71306;BME280;59097;46.858;18.632;2023-02-12T09:46:51;102250.78;;;9.47;71.65
71306;BME280;59097;46.858;18.632;2023-02-12T09:52:17;102258.97;;;9.25;74.24
71306;BME280;59097;46.858;18.632;2023-02-12T09:54:51;102263.06;;;9.86;72.65
71306;BME280;59097;46.858;18.632;2023-02-12T09:57:29;102263.06;;;9.86;72.65
71306;BME280;59097;46.858;18.632;2023-02-12T10:00:05;102262.59;;;9.43;73.54
71306;BME280;59097;46.858;18.632;2023-02-12T10:02:35;102262.34;;;9.46;74.33
71306;BME280;59097;46.858;18.632;2023-02-12T10:05:13;102264.78;;;9.09;75.54
71306;BME280;59097;46.858;18.632;2023-02-12T10:10:46;102268.78;;;9.04;75.34
71306;BME280;59097;46.858;18.632;2023-02-12T10:13:21;102268.72;;;9.34;74.70
71306;BME280;59097;46.858;18.632;2023-02-12T10:27:15;102264.47;;;9.62;73.62
71306;BME280;59097;46.858;18.632;2023-02-12T10:30:07;102271.53;;;9.42;74.21
71306;BME280;59097;46.858;18.632;2023-02-12T10:33:06;102190.53;;;8.71;74.02
71306;BME280;59097;46.858;18.632;2023-02-12T10:36:26;102278.28;;;9.84;73.28
71306;BME280;59097;46.858;18.632;2023-02-12T10:38:38;102265.16;;;9.54;72.94
71306;BME280;59097;46.858;18.632;2023-02-12T10:41:14;102256.66;;;10.27;71.64
71306;BME280;59097;46.858;18.632;2023-02-12T10:43:44;102272.88;;;10.15;70.76
71306;BME280;59097;46.858;18.632;2023-02-12T10:46:14;102269.22;;;10.06;71.56
71306;BME280;59097;46.858;18.632;2023-02-12T10:48:52;102256.81;;;9.68;71.73
71306;BME280;59097;46.858;18.632;2023-02-12T10:55:26;102254.72;;;9.53;73.35
71306;BME280;59097;46.858;18.632;2023-02-12T10:58:27;102250.63;;;9.39;72.35
71306;BME280;59097;46.858;18.632;2023-02-12T11:01:11;102259.53;;;9.28;72.57
71306;BME280;59097;46.858;18.632;2023-02-12T11:03:40;102255.50;;;9.43;72.67
71306;BME280;59097;46.858;18.632;2023-02-12T11:06:29;102253.94;;;9.22;72.85
71306;BME280;59097;46.858;18.632;2023-02-12T11:09:02;102254.56;;;9.54;71.73
71306;BME280;59097;46.858;18.632;2023-02-12T11:11:37;102261.69;;;9.92;69.62
71306;BME280;59097;46.858;18.632;2023-02-12T11:14:19;102261.69;;;9.92;69.62
71306;BME280;59097;46.858;18.632;2023-02-12T11:16:58;102260.19;;;9.21;71.51
71306;BME280;59097;46.858;18.632;2023-02-12T11:19:34;102260.53;;;8.97;71.59
71306;BME280;59097;46.858;18.632;2023-02-12T11:22:12;102258.62;;;9.09;72.09
71306;BME280;59097;46.858;18.632;2023-02-12T11:25:00;102259.75;;;9.16;72.41
71306;BME280;59097;46.858;18.632;2023-02-12T11:27:30;102255.38;;;9.45;71.51
71306;BME280;59097;46.858;18.632;2023-02-12T11:30:19;102258.31;;;9.61;70.62
71306;BME280;59097;46.858;18.632;2023-02-12T11:32:48;102258.75;;;9.57;69.03
71306;BME280;59097;46.858;18.632;2023-02-12T11:35:30;102254.41;;;9.56;68.99
71306;BME280;59097;46.858;18.632;2023-02-12T11:38:02;102248.66;;;9.31;70.07
71306;BME280;59097;46.858;18.632;2023-02-12T11:40:32;102254.63;;;9.24;70.80
71306;BME280;59097;46.858;18.632;2023-02-12T11:43:02;102244.56;;;9.18;70.54
71306;BME280;59097;46.858;18.632;2023-02-12T11:45:59;102243.28;;;9.81;68.31
71306;BME280;59097;46.858;18.632;2023-02-12T11:48:36;102243.28;;;9.81;68.31
71306;BME280;59097;46.858;18.632;2023-02-12T11:51:08;102243.37;;;9.31;70.07
71306;BME280;59097;46.858;18.632;2023-02-12T11:53:49;102243.13;;;9.44;70.30
71306;BME280;59097;46.858;18.632;2023-02-12T11:56:19;102244.03;;;9.24;69.97
71306;BME280;59097;46.858;18.632;2023-02-12T11:58:49;102229.56;;;9.28;70.64
71306;BME280;59097;46.858;18.632;2023-02-12T12:01:29;102237.97;;;9.52;70.21
71306;BME280;59097;46.858;18.632;2023-02-12T12:04:32;102225.16;;;9.57;67.90
71306;BME280;59097;46.858;18.632;2023-02-12T12:07:29;102248.72;;;9.89;67.39
71306;BME280;59097;46.858;18.632;2023-02-12T12:13:22;102234.50;;;10.19;65.32
71306;BME280;59097;46.858;18.632;2023-02-12T12:16:03;102238.62;;;10.50;65.59
71306;BME280;59097;46.858;18.632;2023-02-12T12:18:57;102236.16;;;10.29;63.50
71306;BME280;59097;46.858;18.632;2023-02-12T12:21:53;102233.87;;;10.44;63.74
71306;BME280;59097;46.858;18.632;2023-02-12T12:25:04;102216.25;;;10.89;63.51
71306;BME280;59097;46.858;18.632;2023-02-12T12:27:59;102216.25;;;10.89;63.51
71306;BME280;59097;46.858;18.632;2023-02-12T12:30:44;102215.47;;;10.33;64.74
71306;BME280;59097;46.858;18.632;2023-02-12T12:51:31;102203.31;;;9.06;67.14
71306;BME280;59097;46.858;18.632;2023-02-12T12:54:09;102203.72;;;8.92;67.52
71306;BME280;59097;46.858;18.632;2023-02-12T12:56:54;102211.50;;;8.93;66.95
71306;BME280;59097;46.858;18.632;2023-02-12T12:59:45;102212.13;;;9.16;66.59
71306;BME280;59097;46.858;18.632;2023-02-12T13:05:49;102216.66;;;10.01;63.67
71306;BME280;59097;46.858;18.632;2023-02-12T13:17:34;102215.75;;;8.75;68.74
71306;BME280;59097;46.858;18.632;2023-02-12T13:23:10;102222.50;;;8.58;69.85
71306;BME280;59097;46.858;18.632;2023-02-12T13:25:49;102223.31;;;8.59;69.43
71306;BME280;59097;46.858;18.632;2023-02-12T13:28:40;102223.06;;;8.62;68.36
71306;BME280;59097;46.858;18.632;2023-02-12T13:31:26;102225.72;;;8.62;68.09
71306;BME280;59097;46.858;18.632;2023-02-12T13:33:57;102221.66;;;8.58;67.91
71306;BME280;59097;46.858;18.632;2023-02-12T13:36:25;102227.88;;;8.77;67.04
71306;BME280;59097;46.858;18.632;2023-02-12T13:42:28;102224.03;;;10.17;62.11
71306;BME280;59097;46.858;18.632;2023-02-12T13:48:56;102237.13;;;9.61;63.86
71306;BME280;59097;46.858;18.632;2023-02-12T13:52:06;102226.81;;;9.48;64.38
71306;BME280;59097;46.858;18.632;2023-02-12T14:03:37;102228.06;;;9.54;66.61
71306;BME280;59097;46.858;18.632;2023-02-12T14:08:47;102234.06;;;8.97;68.50
71306;BME280;59097;46.858;18.632;2023-02-12T14:11:19;102236.34;;;9.02;68.54
71306;BME280;59097;46.858;18.632;2023-02-12T14:13:54;102239.94;;;9.01;68.33
71306;BME280;59097;46.858;18.632;2023-02-12T14:25:24;102250.09;;;8.96;69.55
71306;BME280;59097;46.858;18.632;2023-02-12T14:28:24;102241.72;;;8.91;70.04
71306;BME280;59097;46.858;18.632;2023-02-12T14:33:45;102248.59;;;8.72;70.53
71306;BME280;59097;46.858;18.632;2023-02-12T14:36:18;102255.38;;;8.65;70.85
71306;BME280;59097;46.858;18.632;2023-02-12T14:41:26;102243.63;;;9.28;69.16
71306;BME280;59097;46.858;18.632;2023-02-12T14:46:50;102252.84;;;8.64;71.24
71306;BME280;59097;46.858;18.632;2023-02-12T14:49:36;102257.59;;;8.60;71.59
71306;BME280;59097;46.858;18.632;2023-02-12T14:54:59;102253.91;;;8.52;71.63
71306;BME280;59097;46.858;18.632;2023-02-12T14:57:38;102262.09;;;8.49;72.17
71306;BME280;59097;46.858;18.632;2023-02-12T15:05:49;102247.22;;;8.27;73.80
71306;BME280;59097;46.858;18.632;2023-02-12T15:08:42;102250.87;;;8.36;73.60
71306;BME280;59097;46.858;18.632;2023-02-12T15:11:18;102250.19;;;8.34;73.96
71306;BME280;59097;46.858;18.632;2023-02-12T15:13:52;102249.34;;;8.33;74.39
71306;BME280;59097;46.858;18.632;2023-02-12T15:16:34;102239.41;;;8.76;73.70
71306;BME280;59097;46.858;18.632;2023-02-12T15:21:56;102256.31;;;8.02;76.35
71306;BME280;59097;46.858;18.632;2023-02-12T15:24:26;102232.91;;;7.77;77.15
71306;BME280;59097;46.858;18.632;2023-02-12T15:26:57;102253.22;;;7.77;77.67
71306;BME280;59097;46.858;18.632;2023-02-12T15:29:29;102249.38;;;7.70;78.21
71306;BME280;59097;46.858;18.632;2023-02-12T15:32:05;102254.25;;;7.53;79.21
71306;BME280;59097;46.858;18.632;2023-02-12T15:34:36;102258.69;;;7.53;78.58
71306;BME280;59097;46.858;18.632;2023-02-12T15:37:28;102257.37;;;7.47;79.14
71306;BME280;59097;46.858;18.632;2023-02-12T15:40:27;102264.37;;;7.37;79.57
71306;BME280;59097;46.858;18.632;2023-02-12T15:43:04;102278.03;;;7.31;80.87
71306;BME280;59097;46.858;18.632;2023-02-12T15:45:34;102277.56;;;7.26;80.84
71306;BME280;59097;46.858;18.632;2023-02-12T15:48:21;102268.22;;;7.11;81.63
71306;BME280;59097;46.858;18.632;2023-02-12T15:51:13;102281.66;;;7.84;79.51
71306;BME280;59097;46.858;18.632;2023-02-12T15:53:45;102281.66;;;7.84;79.51
71306;BME280;59097;46.858;18.632;2023-02-12T15:56:17;102280.56;;;7.11;81.58
71306;BME280;59097;46.858;18.632;2023-02-12T15:58:52;102287.78;;;7.09;81.44
71306;BME280;59097;46.858;18.632;2023-02-12T16:01:24;102283.81;;;7.03;81.57
71306;BME280;59097;46.858;18.632;2023-02-12T16:03:55;102289.69;;;7.07;81.96
71306;BME280;59097;46.858;18.632;2023-02-12T16:06:27;102296.44;;;7.00;81.95
71306;BME280;59097;46.858;18.632;2023-02-12T16:09:01;102303.00;;;6.94;82.08
71306;BME280;59097;46.858;18.632;2023-02-12T16:11:47;102305.28;;;6.76;83.84